Hauptseite
METAR-TAF:

METAR-TAF

Flughäfen :

Leeds Bradford International Airport

Leeds, England

Breite: 53-52N, Länge: 001-39W, Höhe: 208 m

Beobachtung

Neuester Wetterbericht von vor 20 Stunden und 14 Minuten, um 10:50 UTC
Wind 9 kt aus Ost, variierte zwischen Nordost und Südost
Temperatur 17°C
Luftfeuchtigkeit 52%
Luftdruck 1026 hPa
Sichtweite 10 km oder mehr
keine Wolken unter 1500 m und keine Kumulonimbus oder Gewitterwolken

METAR: EGNM 301050Z 08009KT 050V130 CAVOK 17/07 Q1026

Zeit: 08:04 (07:04 UTC)


TAF: fehlend

Wetterbeobachtungen und Prognosen von mehr als 4000 Flughäfen (METAR und TAF Bericht).

Die verfügbaren Stationen werden durch gelbe und rote Markierungen auf der Karte dargestellt.

Führen Sie die Maus auf sie, um den Namen der Station zu sehen.

Darauf klicken, um die Beobachtung von Wetterbeobachtungen und Prognosen zu sehen.

Um die Karte zu ändern : klicken Sie auf den grünen Tasten mit einem schwarzen Kreuz Zum Vergrößern, auf den grünen Button mit einem Gedankenstrich zu verkleinern, oder auf die grünen Pfeile für benachbarte Karten.


METAR-TAF: